sensor_id;sensor_type;location;lat;lon;timestamp;pressure;altitude;pressure_sealevel;temperature;humidity
14293;BME280;62290;59.420;17.842;2022-07-22T00:00:48;100674.56;;;29.00;41.14
14293;BME280;62290;59.420;17.842;2022-07-22T00:03:17;100674.41;;;29.02;41.11
14293;BME280;62290;59.420;17.842;2022-07-22T00:05:45;100655.41;;;28.94;41.11
14293;BME280;62290;59.420;17.842;2022-07-22T00:08:13;100669.78;;;29.02;41.18
14293;BME280;62290;59.420;17.842;2022-07-22T00:10:41;100665.41;;;29.01;41.18
14293;BME280;62290;59.420;17.842;2022-07-22T00:13:11;100682.53;;;29.02;41.42
14293;BME280;62290;59.420;17.842;2022-07-22T00:15:40;100676.25;;;29.01;41.30
14293;BME280;62290;59.420;17.842;2022-07-22T00:18:08;100678.13;;;29.01;41.27
14293;BME280;62290;59.420;17.842;2022-07-22T00:20:36;100684.41;;;29.01;41.15
14293;BME280;62290;59.420;17.842;2022-07-22T00:23:04;100682.69;;;29.00;41.12
14293;BME280;62290;59.420;17.842;2022-07-22T00:25:32;100700.69;;;29.01;41.04
14293;BME280;62290;59.420;17.842;2022-07-22T00:28:00;100766.66;;;29.02;41.43
14293;BME280;62290;59.420;17.842;2022-07-22T00:30:29;100739.53;;;29.02;40.99
14293;BME280;62290;59.420;17.842;2022-07-22T00:32:58;100784.78;;;29.01;41.32
14293;BME280;62290;59.420;17.842;2022-07-22T00:35:26;100794.94;;;28.99;41.19
14293;BME280;62290;59.420;17.842;2022-07-22T00:37:54;100767.47;;;29.02;41.00
14293;BME280;62290;59.420;17.842;2022-07-22T00:40:24;100801.94;;;29.02;41.04
14293;BME280;62290;59.420;17.842;2022-07-22T00:42:53;100794.59;;;29.02;41.20
14293;BME280;62290;59.420;17.842;2022-07-22T00:45:21;100754.94;;;29.01;41.09
14293;BME280;62290;59.420;17.842;2022-07-22T00:47:51;100806.50;;;29.01;41.04
14293;BME280;62290;59.420;17.842;2022-07-22T00:50:19;100819.03;;;29.02;41.11
14293;BME280;62290;59.420;17.842;2022-07-22T00:52:47;100775.63;;;29.02;41.21
14293;BME280;62290;59.420;17.842;2022-07-22T00:55:16;100747.66;;;29.02;41.14
14293;BME280;62290;59.420;17.842;2022-07-22T00:57:44;100771.22;;;29.01;41.04
14293;BME280;62290;59.420;17.842;2022-07-22T01:00:15;100769.38;;;29.02;41.37
14293;BME280;62290;59.420;17.842;2022-07-22T01:02:44;100780.38;;;29.00;41.25
14293;BME280;62290;59.420;17.842;2022-07-22T01:05:13;100782.94;;;29.02;41.15
14293;BME280;62290;59.420;17.842;2022-07-22T01:07:41;100783.09;;;29.00;41.40
14293;BME280;62290;59.420;17.842;2022-07-22T01:10:09;100774.09;;;29.00;41.12
14293;BME280;62290;59.420;17.842;2022-07-22T01:12:39;100755.25;;;28.90;41.04
14293;BME280;62290;59.420;17.842;2022-07-22T01:15:08;100784.94;;;29.00;40.89
14293;BME280;62290;59.420;17.842;2022-07-22T01:17:36;100765.94;;;29.00;41.39
14293;BME280;62290;59.420;17.842;2022-07-22T01:20:07;100774.94;;;29.00;41.12
14293;BME280;62290;59.420;17.842;2022-07-22T01:22:35;100773.09;;;29.01;41.22
14293;BME280;62290;59.420;17.842;2022-07-22T01:25:04;100776.81;;;29.00;41.12
14293;BME280;62290;59.420;17.842;2022-07-22T01:27:33;100773.22;;;28.99;41.02
14293;BME280;62290;59.420;17.842;2022-07-22T01:30:01;100782.22;;;29.00;41.14
14293;BME280;62290;59.420;17.842;2022-07-22T01:32:29;100775.94;;;28.99;41.17
14293;BME280;62290;59.420;17.842;2022-07-22T01:34:57;100775.94;;;28.99;41.11
14293;BME280;62290;59.420;17.842;2022-07-22T01:37:27;100769.69;;;28.99;41.08
14293;BME280;62290;59.420;17.842;2022-07-22T01:39:56;100762.38;;;28.99;41.23
14293;BME280;62290;59.420;17.842;2022-07-22T01:42:24;100771.56;;;28.98;41.41
14293;BME280;62290;59.420;17.842;2022-07-22T01:44:53;100770.53;;;28.99;41.15
14293;BME280;62290;59.420;17.842;2022-07-22T01:47:21;100772.41;;;28.99;41.06
14293;BME280;62290;59.420;17.842;2022-07-22T01:49:49;100782.22;;;29.00;41.12
14293;BME280;62290;59.420;17.842;2022-07-22T01:52:18;100777.66;;;29.00;41.14
14293;BME280;62290;59.420;17.842;2022-07-22T01:54:48;100777.66;;;29.00;41.13
14293;BME280;62290;59.420;17.842;2022-07-22T01:57:16;100787.66;;;29.00;41.13
14293;BME280;62290;59.420;17.842;2022-07-22T01:59:47;100789.69;;;28.98;41.15
14293;BME280;62290;59.420;17.842;2022-07-22T02:02:15;100790.38;;;29.00;41.02
14293;BME280;62290;59.420;17.842;2022-07-22T02:04:43;100793.78;;;29.02;40.74
14293;BME280;62290;59.420;17.842;2022-07-22T02:07:12;100797.50;;;29.01;40.95
14293;BME280;62290;59.420;17.842;2022-07-22T02:09:40;100790.38;;;29.00;41.12
14293;BME280;62290;59.420;17.842;2022-07-22T02:12:09;100799.22;;;29.02;41.06
14293;BME280;62290;59.420;17.842;2022-07-22T02:14:43;100802.25;;;28.99;41.13
14293;BME280;62290;59.420;17.842;2022-07-22T02:17:12;100804.78;;;29.00;41.20
14293;BME280;62290;59.420;17.842;2022-07-22T02:19:40;100807.34;;;29.02;41.03
14293;BME280;62290;59.420;17.842;2022-07-22T02:22:11;100815.63;;;29.00;41.06
14293;BME280;62290;59.420;17.842;2022-07-22T02:24:39;100843.63;;;29.01;41.02
14293;BME280;62290;59.420;17.842;2022-07-22T02:27:08;100858.19;;;29.00;41.00
14293;BME280;62290;59.420;17.842;2022-07-22T02:29:38;100845.50;;;29.00;40.95
14293;BME280;62290;59.420;17.842;2022-07-22T02:32:06;100845.50;;;29.00;41.04
14293;BME280;62290;59.420;17.842;2022-07-22T02:34:36;100850.06;;;29.00;41.16
14293;BME280;62290;59.420;17.842;2022-07-22T02:37:05;100844.63;;;29.00;41.07
14293;BME280;62290;59.420;17.842;2022-07-22T02:39:33;100845.66;;;28.99;40.96
14293;BME280;62290;59.420;17.842;2022-07-22T02:42:01;100843.09;;;28.97;40.98
14293;BME280;62290;59.420;17.842;2022-07-22T02:44:30;100856.34;;;29.00;41.24
14293;BME280;62290;59.420;17.842;2022-07-22T02:46:59;100865.47;;;28.99;41.02
14293;BME280;62290;59.420;17.842;2022-07-22T02:49:32;100859.22;;;28.99;40.83
14293;BME280;62290;59.420;17.842;2022-07-22T02:52:00;100868.19;;;28.99;40.97
14293;BME280;62290;59.420;17.842;2022-07-22T02:54:28;100858.38;;;28.98;41.04
14293;BME280;62290;59.420;17.842;2022-07-22T02:56:56;100863.81;;;28.98;41.04
14293;BME280;62290;59.420;17.842;2022-07-22T02:59:25;100864.81;;;28.97;41.04
14293;BME280;62290;59.420;17.842;2022-07-22T03:01:54;100868.38;;;28.98;40.74
14293;BME280;62290;59.420;17.842;2022-07-22T03:04:22;100867.38;;;28.99;40.84
14293;BME280;62290;59.420;17.842;2022-07-22T03:06:50;100866.84;;;28.95;40.95
14293;BME280;62290;59.420;17.842;2022-07-22T03:09:21;100875.66;;;28.97;40.92
14293;BME280;62290;59.420;17.842;2022-07-22T03:11:50;100869.22;;;28.98;40.82
14293;BME280;62290;59.420;17.842;2022-07-22T03:14:19;100862.94;;;28.98;40.62
14293;BME280;62290;59.420;17.842;2022-07-22T03:16:48;100866.53;;;28.98;40.77
14293;BME280;62290;59.420;17.842;2022-07-22T03:19:18;100870.09;;;28.99;40.79
14293;BME280;62290;59.420;17.842;2022-07-22T03:21:50;100880.09;;;28.98;40.81
14293;BME280;62290;59.420;17.842;2022-07-22T03:24:18;100886.38;;;28.99;40.70
14293;BME280;62290;59.420;17.842;2022-07-22T03:26:46;100880.09;;;28.98;40.86
14293;BME280;62290;59.420;17.842;2022-07-22T03:29:14;100875.84;;;28.96;40.76
14293;BME280;62290;59.420;17.842;2022-07-22T03:31:42;100879.03;;;28.99;40.75
14293;BME280;62290;59.420;17.842;2022-07-22T03:34:11;100871.94;;;28.98;41.02
14293;BME280;62290;59.420;17.842;2022-07-22T03:36:48;100861.09;;;28.98;40.77
14293;BME280;62290;59.420;17.842;2022-07-22T03:39:16;100874.47;;;29.00;40.71
14293;BME280;62290;59.420;17.842;2022-07-22T03:41:44;100865.84;;;28.96;40.65
14293;BME280;62290;59.420;17.842;2022-07-22T03:44:12;100879.03;;;28.99;40.87
14293;BME280;62290;59.420;17.842;2022-07-22T03:46:40;100886.38;;;28.99;40.81
14293;BME280;62290;59.420;17.842;2022-07-22T03:49:09;100905.19;;;29.00;41.08
14293;BME280;62290;59.420;17.842;2022-07-22T03:51:37;100907.03;;;29.00;40.88
14293;BME280;62290;59.420;17.842;2022-07-22T03:54:07;100916.88;;;29.01;40.72
14293;BME280;62290;59.420;17.842;2022-07-22T03:56:39;100909.75;;;29.00;40.66
14293;BME280;62290;59.420;17.842;2022-07-22T03:59:07;100925.88;;;29.01;40.67
14293;BME280;62290;59.420;17.842;2022-07-22T04:01:36;100923.00;;;29.03;40.62
14293;BME280;62290;59.420;17.842;2022-07-22T04:04:04;100915.88;;;29.02;40.57
14293;BME280;62290;59.420;17.842;2022-07-22T04:06:36;100914.53;;;29.06;40.67
14293;BME280;62290;59.420;17.842;2022-07-22T04:09:16;100910.97;;;29.05;40.70
14293;BME280;62290;59.420;17.842;2022-07-22T04:11:44;100900.09;;;29.05;40.46
14293;BME280;62290;59.420;17.842;2022-07-22T04:14:13;100896.38;;;29.06;40.41
14293;BME280;62290;59.420;17.842;2022-07-22T04:16:43;100880.09;;;29.06;40.54
14293;BME280;62290;59.420;17.842;2022-07-22T04:19:12;100879.94;;;29.08;40.54
14293;BME280;62290;59.420;17.842;2022-07-22T04:21:52;100881.78;;;29.07;40.69
14293;BME280;62290;59.420;17.842;2022-07-22T04:24:24;100888.94;;;29.08;40.60
14293;BME280;62290;59.420;17.842;2022-07-22T04:26:53;100885.34;;;29.08;40.39
14293;BME280;62290;59.420;17.842;2022-07-22T04:29:22;100885.53;;;29.06;40.48
14293;BME280;62290;59.420;17.842;2022-07-22T04:31:51;100884.50;;;29.07;40.50
14293;BME280;62290;59.420;17.842;2022-07-22T04:34:27;100885.34;;;29.08;40.61
14293;BME280;62290;59.420;17.842;2022-07-22T04:36:56;100891.63;;;29.08;40.33
14293;BME280;62290;59.420;17.842;2022-07-22T04:39:28;100876.22;;;29.09;40.37
14293;BME280;62290;59.420;17.842;2022-07-22T04:41:57;100881.63;;;29.09;40.47
14293;BME280;62290;59.420;17.842;2022-07-22T04:44:27;100887.75;;;29.11;40.41
14293;BME280;62290;59.420;17.842;2022-07-22T04:46:56;100886.03;;;29.10;40.53
14293;BME280;62290;59.420;17.842;2022-07-22T04:49:24;100890.28;;;29.12;40.39
14293;BME280;62290;59.420;17.842;2022-07-22T04:51:57;100895.72;;;29.12;40.33
14293;BME280;62290;59.420;17.842;2022-07-22T04:54:37;100905.56;;;29.13;40.35
14293;BME280;62290;59.420;17.842;2022-07-22T04:57:06;100906.41;;;29.14;40.55
14293;BME280;62290;59.420;17.842;2022-07-22T04:59:34;100895.72;;;29.12;40.26
14293;BME280;62290;59.420;17.842;2022-07-22T05:02:03;100902.53;;;29.16;40.24
14293;BME280;62290;59.420;17.842;2022-07-22T05:04:31;100898.81;;;29.17;40.18
14293;BME280;62290;59.420;17.842;2022-07-22T05:06:59;100902.19;;;29.19;40.15
14293;BME280;62290;59.420;17.842;2022-07-22T05:09:29;100904.91;;;29.19;39.96
14293;BME280;62290;59.420;17.842;2022-07-22T05:11:59;100907.31;;;29.22;40.24
14293;BME280;62290;59.420;17.842;2022-07-22T05:14:31;100906.28;;;29.23;40.16
14293;BME280;62290;59.420;17.842;2022-07-22T05:16:59;100908.00;;;29.24;40.01
14293;BME280;62290;59.420;17.842;2022-07-22T05:19:28;100902.56;;;29.24;40.29
14293;BME280;62290;59.420;17.842;2022-07-22T05:21:56;100914.97;;;29.27;39.91
14293;BME280;62290;59.420;17.842;2022-07-22T05:24:24;100916.63;;;29.28;40.16
14293;BME280;62290;59.420;17.842;2022-07-22T05:26:52;100920.22;;;29.28;40.05
14293;BME280;62290;59.420;17.842;2022-07-22T05:29:23;100921.06;;;29.29;39.97
14293;BME280;62290;59.420;17.842;2022-07-22T05:31:51;100930.06;;;29.29;39.96
14293;BME280;62290;59.420;17.842;2022-07-22T05:34:19;100928.22;;;29.30;39.96
14293;BME280;62290;59.420;17.842;2022-07-22T05:36:52;100920.75;;;29.32;40.13
14293;BME280;62290;59.420;17.842;2022-07-22T05:39:20;100927.03;;;29.32;40.04
14293;BME280;62290;59.420;17.842;2022-07-22T05:41:48;100927.69;;;29.34;39.79
14293;BME280;62290;59.420;17.842;2022-07-22T05:44:23;100930.22;;;29.36;39.98
14293;BME280;62290;59.420;17.842;2022-07-22T05:46:52;100932.94;;;29.36;39.95
14293;BME280;62290;59.420;17.842;2022-07-22T05:49:20;100936.38;;;29.38;39.83
14293;BME280;62290;59.420;17.842;2022-07-22T05:51:56;100934.47;;;29.38;39.62
14293;BME280;62290;59.420;17.842;2022-07-22T05:54:27;100928.91;;;29.40;39.91
14293;BME280;62290;59.420;17.842;2022-07-22T05:56:55;100933.28;;;29.41;39.64
14293;BME280;62290;59.420;17.842;2022-07-22T05:59:25;100943.16;;;29.42;39.79
14293;BME280;62290;59.420;17.842;2022-07-22T06:01:53;100945.88;;;29.42;39.79
14293;BME280;62290;59.420;17.842;2022-07-22T06:04:43;100940.44;;;29.42;39.99
14293;BME280;62290;59.420;17.842;2022-07-22T06:07:13;100932.97;;;29.44;40.01
14293;BME280;62290;59.420;17.842;2022-07-22T06:09:43;100934.69;;;29.45;39.70
14293;BME280;62290;59.420;17.842;2022-07-22T06:12:12;100930.09;;;29.46;40.02
14293;BME280;62290;59.420;17.842;2022-07-22T06:14:42;100925.34;;;29.48;39.76
14293;BME280;62290;59.420;17.842;2022-07-22T06:17:10;100931.44;;;29.50;39.87
14293;BME280;62290;59.420;17.842;2022-07-22T06:19:38;100911.44;;;29.51;39.72
14293;BME280;62290;59.420;17.842;2022-07-22T06:22:06;100916.69;;;29.52;39.75
14293;BME280;62290;59.420;17.842;2022-07-22T06:24:34;100918.41;;;29.53;39.80
14293;BME280;62290;59.420;17.842;2022-07-22T06:27:02;100929.09;;;29.55;39.29
14293;BME280;62290;59.420;17.842;2022-07-22T06:29:30;100918.56;;;29.52;39.45
14293;BME280;62290;59.420;17.842;2022-07-22T06:32:00;100924.84;;;29.52;39.67
14293;BME280;62290;59.420;17.842;2022-07-22T06:34:28;100929.44;;;29.60;39.71
14293;BME280;62290;59.420;17.842;2022-07-22T06:37:04;100934.72;;;29.61;39.55
14293;BME280;62290;59.420;17.842;2022-07-22T06:39:33;100944.53;;;29.62;39.34
14293;BME280;62290;59.420;17.842;2022-07-22T06:42:33;100949.16;;;29.62;39.74
14293;BME280;62290;59.420;17.842;2022-07-22T06:45:20;100950.81;;;29.63;39.36
14293;BME280;62290;59.420;17.842;2022-07-22T06:48:08;100958.97;;;29.63;39.68
14293;BME280;62290;59.420;17.842;2022-07-22T06:50:37;100968.97;;;29.62;39.75
14293;BME280;62290;59.420;17.842;2022-07-22T06:53:11;100968.31;;;29.60;39.66
14293;BME280;62290;59.420;17.842;2022-07-22T06:55:40;100963.72;;;29.61;39.39
14293;BME280;62290;59.420;17.842;2022-07-22T06:58:10;100957.63;;;29.59;39.56
14293;BME280;62290;59.420;17.842;2022-07-22T07:00:38;100964.91;;;29.58;39.82
14293;BME280;62290;59.420;17.842;2022-07-22T07:03:34;100965.06;;;29.57;39.77
14293;BME280;62290;59.420;17.842;2022-07-22T07:06:07;100957.09;;;29.55;39.92
14293;BME280;62290;59.420;17.842;2022-07-22T07:09:14;100960.13;;;29.52;39.92
14293;BME280;62290;59.420;17.842;2022-07-22T07:11:51;100972.03;;;29.51;39.91
14293;BME280;62290;59.420;17.842;2022-07-22T07:14:38;100980.34;;;29.50;39.88
14293;BME280;62290;59.420;17.842;2022-07-22T07:17:10;100993.06;;;29.49;39.99
14293;BME280;62290;59.420;17.842;2022-07-22T07:19:41;101005.63;;;29.50;39.97
14293;BME280;62290;59.420;17.842;2022-07-22T07:22:10;101014.97;;;29.48;39.86
14293;BME280;62290;59.420;17.842;2022-07-22T07:24:38;101013.09;;;29.48;39.91
14293;BME280;62290;59.420;17.842;2022-07-22T07:27:06;101024.97;;;29.47;39.89
14293;BME280;62290;59.420;17.842;2022-07-22T07:29:35;101026.69;;;29.48;39.88
14293;BME280;62290;59.420;17.842;2022-07-22T07:32:04;101029.38;;;29.48;39.98
14293;BME280;62290;59.420;17.842;2022-07-22T07:34:33;101023.09;;;29.48;40.02
14293;BME280;62290;59.420;17.842;2022-07-22T07:37:03;101004.94;;;29.48;39.98
14293;BME280;62290;59.420;17.842;2022-07-22T07:39:31;100997.81;;;29.47;40.03
14293;BME280;62290;59.420;17.842;2022-07-22T07:41:59;101003.25;;;29.47;40.09
14293;BME280;62290;59.420;17.842;2022-07-22T07:44:27;101002.06;;;29.50;39.75
14293;BME280;62290;59.420;17.842;2022-07-22T07:46:55;100992.22;;;29.49;39.81
14293;BME280;62290;59.420;17.842;2022-07-22T07:49:24;101000.38;;;29.49;39.86
14293;BME280;62290;59.420;17.842;2022-07-22T07:51:52;101013.09;;;29.48;39.79
14293;BME280;62290;59.420;17.842;2022-07-22T07:54:23;101013.09;;;29.48;40.06
14293;BME280;62290;59.420;17.842;2022-07-22T07:56:52;101005.81;;;29.49;40.02
14293;BME280;62290;59.420;17.842;2022-07-22T07:59:21;101002.06;;;29.50;39.97
14293;BME280;62290;59.420;17.842;2022-07-22T08:02:00;101007.00;;;29.46;39.82
14293;BME280;62290;59.420;17.842;2022-07-22T08:04:29;100999.53;;;29.48;39.72
14293;BME280;62290;59.420;17.842;2022-07-22T08:07:14;100990.34;;;29.49;40.06
14293;BME280;62290;59.420;17.842;2022-07-22T08:09:45;100983.91;;;29.50;39.80
14293;BME280;62290;59.420;17.842;2022-07-22T08:12:28;100976.94;;;29.48;39.61
14293;BME280;62290;59.420;17.842;2022-07-22T08:15:31;100982.19;;;29.49;39.77
14293;BME280;62290;59.420;17.842;2022-07-22T08:18:05;100982.19;;;29.49;39.89
14293;BME280;62290;59.420;17.842;2022-07-22T08:20:33;100976.63;;;29.51;39.92
14293;BME280;62290;59.420;17.842;2022-07-22T08:23:05;100969.31;;;29.51;39.85
14293;BME280;62290;59.420;17.842;2022-07-22T08:25:35;100986.28;;;29.53;39.66
14293;BME280;62290;59.420;17.842;2022-07-22T08:28:04;100972.72;;;29.53;39.66
14293;BME280;62290;59.420;17.842;2022-07-22T08:30:33;100981.72;;;29.54;39.46
14293;BME280;62290;59.420;17.842;2022-07-22T08:33:01;100974.41;;;29.54;39.79
14293;BME280;62290;59.420;17.842;2022-07-22T08:35:29;100968.97;;;29.54;40.04
14293;BME280;62290;59.420;17.842;2022-07-22T08:37:58;100965.56;;;29.52;39.51
14293;BME280;62290;59.420;17.842;2022-07-22T08:40:26;100987.16;;;29.54;39.76
14293;BME280;62290;59.420;17.842;2022-07-22T08:42:57;100989.88;;;29.54;39.94
14293;BME280;62290;59.420;17.842;2022-07-22T08:45:28;100989.88;;;29.54;39.79
14293;BME280;62290;59.420;17.842;2022-07-22T08:47:57;100990.88;;;29.53;39.57
14293;BME280;62290;59.420;17.842;2022-07-22T08:50:47;100993.91;;;29.50;39.95
14293;BME280;62290;59.420;17.842;2022-07-22T08:53:31;101001.91;;;29.51;39.74
14293;BME280;62290;59.420;17.842;2022-07-22T08:56:07;101000.88;;;29.52;39.58
14293;BME280;62290;59.420;17.842;2022-07-22T08:58:37;101004.44;;;29.53;39.84
14293;BME280;62290;59.420;17.842;2022-07-22T09:01:07;101019.88;;;29.52;39.68
14293;BME280;62290;59.420;17.842;2022-07-22T09:03:47;101036.19;;;29.52;39.62
14293;BME280;62290;59.420;17.842;2022-07-22T09:06:17;101037.22;;;29.51;39.68
14293;BME280;62290;59.420;17.842;2022-07-22T09:08:52;101036.34;;;29.51;39.68
14293;BME280;62290;59.420;17.842;2022-07-22T09:11:38;101044.66;;;29.49;39.73
14293;BME280;62290;59.420;17.842;2022-07-22T09:14:47;101041.25;;;29.47;39.79
14293;BME280;62290;59.420;17.842;2022-07-22T09:17:40;101043.28;;;29.45;39.77
14293;BME280;62290;59.420;17.842;2022-07-22T09:20:38;101032.44;;;29.45;39.95
14293;BME280;62290;59.420;17.842;2022-07-22T09:23:24;101035.28;;;29.44;39.72
14293;BME280;62290;59.420;17.842;2022-07-22T09:25:55;101024.44;;;29.44;39.93
14293;BME280;62290;59.420;17.842;2022-07-22T09:28:25;101024.28;;;29.45;39.86
14293;BME280;62290;59.420;17.842;2022-07-22T09:31:31;101027.84;;;29.46;39.87
14293;BME280;62290;59.420;17.842;2022-07-22T09:34:26;101011.88;;;29.43;39.78
14293;BME280;62290;59.420;17.842;2022-07-22T09:36:55;101028.00;;;29.44;39.68
14293;BME280;62290;59.420;17.842;2022-07-22T09:39:26;101035.16;;;29.45;39.79
14293;BME280;62290;59.420;17.842;2022-07-22T09:41:59;101045.00;;;29.46;39.94
14293;BME280;62290;59.420;17.842;2022-07-22T09:44:27;101044.16;;;29.46;39.73
14293;BME280;62290;59.420;17.842;2022-07-22T09:47:01;101036.69;;;29.48;39.65
14293;BME280;62290;59.420;17.842;2022-07-22T09:50:14;101032.25;;;29.47;39.82
14293;BME280;62290;59.420;17.842;2022-07-22T09:53:02;101034.16;;;29.46;39.65
14293;BME280;62290;59.420;17.842;2022-07-22T09:55:34;101030.38;;;29.47;39.69
14293;BME280;62290;59.420;17.842;2022-07-22T09:58:05;101020.56;;;29.46;39.50
14293;BME280;62290;59.420;17.842;2022-07-22T10:00:36;101030.25;;;29.49;39.83
14293;BME280;62290;59.420;17.842;2022-07-22T10:03:08;101024.09;;;29.47;39.78
14293;BME280;62290;59.420;17.842;2022-07-22T10:05:40;101038.41;;;29.49;39.74
14293;BME280;62290;59.420;17.842;2022-07-22T10:08:09;101048.41;;;29.48;39.69
14293;BME280;62290;59.420;17.842;2022-07-22T10:10:40;101045.50;;;29.50;39.56
14293;BME280;62290;59.420;17.842;2022-07-22T10:13:09;101034.16;;;29.46;39.80
14293;BME280;62290;59.420;17.842;2022-07-22T10:15:37;101039.22;;;29.49;39.65
14293;BME280;62290;59.420;17.842;2022-07-22T10:18:08;101042.78;;;29.50;39.70
14293;BME280;62290;59.420;17.842;2022-07-22T10:20:42;101053.84;;;29.48;39.62
14293;BME280;62290;59.420;17.842;2022-07-22T10:23:13;101046.34;;;29.50;39.55
14293;BME280;62290;59.420;17.842;2022-07-22T10:25:53;101058.22;;;29.49;39.65
14293;BME280;62290;59.420;17.842;2022-07-22T10:28:24;101067.41;;;29.48;39.90
14293;BME280;62290;59.420;17.842;2022-07-22T10:30:52;101050.41;;;29.38;39.52
14293;BME280;62290;59.420;17.842;2022-07-22T10:33:29;101064.69;;;29.48;39.77
14293;BME280;62290;59.420;17.842;2022-07-22T10:35:59;101029.81;;;29.27;39.49
14293;BME280;62290;59.420;17.842;2022-07-22T10:38:29;101045.94;;;29.29;39.76
14293;BME280;62290;59.420;17.842;2022-07-22T10:40:58;101074.69;;;29.48;39.55
14293;BME280;62290;59.420;17.842;2022-07-22T10:43:27;101071.13;;;29.47;39.53
14293;BME280;62290;59.420;17.842;2022-07-22T10:45:57;101062.13;;;29.47;39.86
14293;BME280;62290;59.420;17.842;2022-07-22T10:48:45;101053.16;;;29.46;39.81
14293;BME280;62290;59.420;17.842;2022-07-22T10:51:15;101047.00;;;29.44;39.62
14293;BME280;62290;59.420;17.842;2022-07-22T10:53:52;101049.72;;;29.44;39.60
14293;BME280;62290;59.420;17.842;2022-07-22T10:56:24;101042.63;;;29.43;39.83
14293;BME280;62290;59.420;17.842;2022-07-22T10:58:59;101031.75;;;29.43;39.91
14293;BME280;62290;59.420;17.842;2022-07-22T11:01:30;101038.19;;;29.42;39.83
14293;BME280;62290;59.420;17.842;2022-07-22T11:04:12;101007.41;;;29.25;39.58
14293;BME280;62290;59.420;17.842;2022-07-22T11:06:45;101039.19;;;29.41;39.38
14293;BME280;62290;59.420;17.842;2022-07-22T11:09:14;101028.50;;;29.40;39.71
14293;BME280;62290;59.420;17.842;2022-07-22T11:11:45;101008.94;;;29.28;40.11
14293;BME280;62290;59.420;17.842;2022-07-22T11:14:16;101034.78;;;29.40;39.80
14293;BME280;62290;59.420;17.842;2022-07-22T11:16:45;101023.94;;;29.40;39.65
14293;BME280;62290;59.420;17.842;2022-07-22T11:19:19;101005.78;;;29.41;39.64
14293;BME280;62290;59.420;17.842;2022-07-22T11:21:52;101011.22;;;29.41;39.95
14293;BME280;62290;59.420;17.842;2022-07-22T11:24:21;101013.06;;;29.40;39.70
14293;BME280;62290;59.420;17.842;2022-07-22T11:26:51;101020.34;;;29.40;39.53
14293;BME280;62290;59.420;17.842;2022-07-22T11:29:26;101021.22;;;29.40;39.57
14293;BME280;62290;59.420;17.842;2022-07-22T11:31:56;101029.50;;;29.38;39.70
14293;BME280;62290;59.420;17.842;2022-07-22T11:34:26;101029.50;;;29.38;39.37
14293;BME280;62290;59.420;17.842;2022-07-22T11:36:56;101018.66;;;29.38;39.56
14293;BME280;62290;59.420;17.842;2022-07-22T11:39:26;101020.53;;;29.38;39.71
14293;BME280;62290;59.420;17.842;2022-07-22T11:41:56;101030.38;;;29.39;39.68
14293;BME280;62290;59.420;17.842;2022-07-22T11:44:26;101036.81;;;29.38;39.58
14293;BME280;62290;59.420;17.842;2022-07-22T11:46:55;101051.41;;;29.37;39.56
14293;BME280;62290;59.420;17.842;2022-07-22T11:49:27;101055.66;;;29.40;39.56
14293;BME280;62290;59.420;17.842;2022-07-22T11:51:56;101053.13;;;29.38;39.72
14293;BME280;62290;59.420;17.842;2022-07-22T11:54:25;101047.69;;;29.38;39.51
14293;BME280;62290;59.420;17.842;2022-07-22T11:56:53;101045.63;;;29.32;39.76
14293;BME280;62290;59.420;17.842;2022-07-22T11:59:24;101052.25;;;29.38;39.76
14293;BME280;62290;59.420;17.842;2022-07-22T12:01:52;101054.97;;;29.38;39.51
14293;BME280;62290;59.420;17.842;2022-07-22T12:04:22;101061.25;;;29.38;39.65
14293;BME280;62290;59.420;17.842;2022-07-22T12:06:53;101051.41;;;29.37;39.52
14293;BME280;62290;59.420;17.842;2022-07-22T12:09:23;101051.41;;;29.37;39.68
14293;BME280;62290;59.420;17.842;2022-07-22T12:11:53;101064.81;;;29.38;39.57
14293;BME280;62290;59.420;17.842;2022-07-22T12:14:24;101055.97;;;29.36;39.74
14293;BME280;62290;59.420;17.842;2022-07-22T12:16:57;101042.56;;;29.35;39.42
14293;BME280;62290;59.420;17.842;2022-07-22T12:19:27;101046.97;;;29.36;39.45
14293;BME280;62290;59.420;17.842;2022-07-22T12:21:59;101045.97;;;29.37;39.68
14293;BME280;62290;59.420;17.842;2022-07-22T12:24:29;101038.00;;;29.35;39.46
14293;BME280;62290;59.420;17.842;2022-07-22T12:26:59;101042.56;;;29.35;39.54
14293;BME280;62290;59.420;17.842;2022-07-22T12:29:30;101029.69;;;29.37;39.48
14293;BME280;62290;59.420;17.842;2022-07-22T12:32:00;101035.28;;;29.35;39.75
14293;BME280;62290;59.420;17.842;2022-07-22T12:34:34;101045.13;;;29.36;39.46
14293;BME280;62290;59.420;17.842;2022-07-22T12:37:16;101038.81;;;29.36;39.65
14293;BME280;62290;59.420;17.842;2022-07-22T12:39:56;101034.44;;;29.35;39.67
14293;BME280;62290;59.420;17.842;2022-07-22T12:42:25;101039.00;;;29.34;39.60
14293;BME280;62290;59.420;17.842;2022-07-22T12:44:59;101025.44;;;29.34;39.64
14293;BME280;62290;59.420;17.842;2022-07-22T12:47:46;101025.41;;;29.26;39.47
14293;BME280;62290;59.420;17.842;2022-07-22T12:50:20;101036.63;;;29.31;39.63
14293;BME280;62290;59.420;17.842;2022-07-22T12:52:50;101029.50;;;29.30;39.48
14293;BME280;62290;59.420;17.842;2022-07-22T12:55:40;101024.75;;;29.32;39.61
14293;BME280;62290;59.420;17.842;2022-07-22T12:58:09;101031.19;;;29.31;39.66
14293;BME280;62290;59.420;17.842;2022-07-22T13:00:40;101026.63;;;29.32;39.42
14293;BME280;62290;59.420;17.842;2022-07-22T13:03:09;101009.13;;;29.26;39.62